Plain Dealing, Louisiana
Current Conditions -  °F | °C
As of 5:53 AM on Thursday 29 Jan 2015 (Local Time) from KDTN Reporting Station
Few Clouds Few Clouds  
Wind Chill: 53°   Ceiling: Unl
Heat Index: 53°   Visibility: 10mi
Dew Point: 50°   Wind: 7mph
Humidity: 89%   Direction: 200°SSW
Pressure: 30.12"   Gusts: NA
Location:  32.91°N, 93.7°W
Report Text: KDTN 291153Z AUTO 20006KT 10SM FEW009 12/10 A3012 RMK AO2 SLP197 T01170100 10144 20117 50003 TSNO
Loading
Personal Weather Stations






























Interactive Weather Map New forecast layout! Learn more

10-Day Weather Forecast

Advertisements
Track Severe Weather on mobile